Lockridge, Iowa
Current Conditions -  °F | °C
As of 6:35 PM on Monday 22 Dec 2014 (Local Time) from KMPZ Reporting Station
Moderate Rain Moderate Rain  
Wind Chill: 34°   Ceiling: 100
Heat Index: 40°   Visibility: 2mi
Dew Point: 40°   Wind: 9mph
Humidity: 100%   Direction: 110°ESE
Pressure: 29.51"   Gusts: NA
Location:  40.99°N, 91.75°W
Report Text: KMPZ 230035Z AUTO 11008KT 2SM RA OVC001 05/05 A2951 RMK AO2 T00450045
Loading
Personal Weather Stations






























Interactive Weather Map New forecast layout! Learn more

10-Day Weather Forecast

Advertisements
Track Severe Weather on mobile